Time;durP1;ratioP1;P1;durP2;ratioP2;P2;SDS_P1;SDS_P2;PMS_P1;PMS_P2;Temp;Humidity;BMP_temperature;BMP_pressure;BME280_temperature;BME280_humidity;BME280_pressure;Samples;Min_cycle;Max_cycle;Signal;HPM_P1;HPM_P2
2022/05/13 00:01:32;;;;;;;6.47;2.83;;;12.90;99.90;;;;;;5121833;27;20236;-63
2022/05/13 00:04:01;;;;;;;7.83;3.03;;;12.90;99.90;;;;;;5119708;27;20305;-63
2022/05/13 00:06:29;;;;;;;11.13;3.10;;;12.80;99.90;;;;;;5120704;27;20247;-62
2022/05/13 00:08:58;;;;;;;7.23;3.30;;;12.70;99.90;;;;;;5121664;27;20780;-62
2022/05/13 00:11:27;;;;;;;7.63;3.00;;;12.80;99.90;;;;;;5121685;27;20248;-62
2022/05/13 00:13:56;;;;;;;8.97;3.20;;;12.80;99.90;;;;;;5119489;27;20248;-63
2022/05/13 00:16:24;;;;;;;6.20;3.13;;;12.70;99.90;;;;;;5121453;27;20243;-63
2022/05/13 00:18:52;;;;;;;8.10;3.17;;;12.70;99.90;;;;;;5103794;27;20244;-63
2022/05/13 00:21:21;;;;;;;5.50;3.00;;;12.60;99.90;;;;;;5122584;27;20327;-62
2022/05/13 00:23:50;;;;;;;5.13;3.30;;;12.60;99.90;;;;;;5128168;27;20236;-62
2022/05/13 00:26:20;;;;;;;8.03;3.43;;;12.50;99.90;;;;;;5131683;27;20221;-62
2022/05/13 00:28:48;;;;;;;6.57;3.57;;;12.50;99.90;;;;;;5113535;28;20266;-62
2022/05/13 00:31:16;;;;;;;6.87;3.07;;;12.40;99.90;;;;;;5131348;28;20243;-62
2022/05/13 00:33:44;;;;;;;9.23;3.63;;;12.40;99.90;;;;;;5128228;28;20289;-62
2022/05/13 00:36:12;;;;;;;8.33;3.57;;;12.30;99.90;;;;;;5130847;28;20228;-62
2022/05/13 00:38:40;;;;;;;9.97;3.33;;;12.30;99.90;;;;;;5130351;28;20236;-64
2022/05/13 00:41:08;;;;;;;10.10;3.57;;;12.30;99.90;;;;;;5131025;28;20318;-62
2022/05/13 00:43:45;;;;;;;6.67;2.93;;;12.30;99.90;;;;;;5128073;28;20232;-62
2022/05/13 00:46:14;;;;;;;7.93;3.13;;;12.30;99.90;;;;;;5130762;28;20694;-62
2022/05/13 00:48:42;;;;;;;7.10;3.57;;;12.20;99.90;;;;;;5126451;28;20240;-62
2022/05/13 00:51:13;;;;;;;8.63;3.40;;;12.20;99.90;;;;;;5131043;28;20711;-62
2022/05/13 00:53:41;;;;;;;5.70;3.17;;;12.20;99.90;;;;;;5128129;28;20267;-62
2022/05/13 00:56:10;;;;;;;7.90;3.37;;;12.10;99.90;;;;;;5130775;28;20592;-62
2022/05/13 00:58:43;;;;;;;8.07;3.50;;;12.10;99.90;;;;;;5130324;28;20265;-62
2022/05/13 01:01:11;;;;;;;6.97;3.40;;;12.10;99.90;;;;;;5130816;28;20231;-62
2022/05/13 01:03:40;;;;;;;6.90;3.40;;;12.00;99.90;;;;;;5127432;27;25053;-62
2022/05/13 01:06:13;;;;;;;7.53;3.40;;;12.00;99.90;;;;;;5133407;27;20299;-62
2022/05/13 01:08:41;;;;;;;7.87;3.50;;;12.00;99.90;;;;;;5133915;27;20240;-62
2022/05/13 01:11:13;;;;;;;7.83;3.80;;;12.00;99.90;;;;;;5134472;27;20239;-63
2022/05/13 01:13:50;;;;;;;7.97;3.40;;;12.00;99.90;;;;;;5125901;27;20231;-62
2022/05/13 01:16:18;;;;;;;7.07;3.70;;;11.90;99.90;;;;;;5134457;27;20244;-62
2022/05/13 01:18:45;;;;;;;6.10;3.43;;;11.90;99.90;;;;;;5126775;27;20228;-62
2022/05/13 01:21:19;;;;;;;9.63;3.83;;;11.90;99.90;;;;;;5134631;27;20255;-62
2022/05/13 01:23:50;;;;;;;8.97;3.97;;;11.90;99.90;;;;;;5131378;27;20259;-63
2022/05/13 01:26:22;;;;;;;8.43;4.13;;;11.90;99.90;;;;;;5127439;27;20237;-62
2022/05/13 01:28:53;;;;;;;13.13;4.67;;;11.90;99.90;;;;;;5129712;27;20244;-65
2022/05/13 01:31:27;;;;;;;9.83;4.30;;;11.80;99.90;;;;;;5134222;27;20236;-62
2022/05/13 01:33:55;;;;;;;11.30;4.10;;;11.80;99.90;;;;;;5130911;27;20239;-62
2022/05/13 01:36:23;;;;;;;7.63;4.40;;;11.80;99.90;;;;;;5134158;27;20231;-62
2022/05/13 01:38:53;;;;;;;9.70;4.13;;;11.80;99.90;;;;;;5133656;27;20295;-63
2022/05/13 01:41:22;;;;;;;8.90;3.80;;;11.70;99.90;;;;;;5133986;27;20284;-62
2022/05/13 01:43:52;;;;;;;10.43;4.17;;;11.70;99.90;;;;;;5131260;27;20239;-62
2022/05/13 01:46:22;;;;;;;8.93;4.17;;;11.70;99.90;;;;;;5133501;27;20239;-65
2022/05/13 01:48:51;;;;;;;9.73;4.00;;;11.70;99.90;;;;;;5132910;27;20247;-64
2022/05/13 01:51:20;;;;;;;8.97;4.10;;;11.70;99.90;;;;;;5134277;27;20235;-62
2022/05/13 01:53:49;;;;;;;9.13;4.37;;;11.70;99.90;;;;;;5131441;27;20323;-62
2022/05/13 01:56:18;;;;;;;6.50;3.63;;;11.60;99.90;;;;;;5133868;27;20288;-62
2022/05/13 01:58:47;;;;;;;9.47;4.00;;;11.60;99.90;;;;;;5131304;27;20238;-63
2022/05/13 02:01:15;;;;;;;10.30;4.70;;;11.60;99.90;;;;;;5133674;27;20239;-63
2022/05/13 02:03:45;;;;;;;9.53;3.77;;;11.60;99.90;;;;;;5125848;27;20321;-62
2022/05/13 02:06:17;;;;;;;6.97;3.90;;;11.60;99.90;;;;;;5133589;27;20240;-62
2022/05/13 02:08:45;;;;;;;7.73;4.03;;;11.60;99.90;;;;;;5134254;27;20281;-63
2022/05/13 02:11:14;;;;;;;7.73;4.03;;;11.60;99.90;;;;;;5133493;27;20237;-62
2022/05/13 02:13:44;;;;;;;8.73;4.47;;;11.50;99.90;;;;;;5130638;27;20326;-62
2022/05/13 02:16:13;;;;;;;10.23;4.00;;;11.50;99.90;;;;;;5132300;27;20234;-62
2022/05/13 02:18:42;;;;;;;8.83;4.50;;;11.50;99.90;;;;;;5120444;27;20293;-63
2022/05/13 02:21:10;;;;;;;9.40;3.93;;;11.50;99.90;;;;;;5133232;27;20306;-63
2022/05/13 02:23:39;;;;;;;7.00;4.43;;;11.40;99.90;;;;;;5130563;27;20323;-62
2022/05/13 02:26:09;;;;;;;8.43;4.20;;;11.40;99.90;;;;;;5133231;27;20244;-63
2022/05/13 02:28:38;;;;;;;9.67;3.93;;;11.40;99.90;;;;;;5132637;27;20311;-62
2022/05/13 02:31:08;;;;;;;8.47;4.17;;;11.40;99.90;;;;;;5132347;27;20240;-62
2022/05/13 02:33:38;;;;;;;9.80;4.50;;;11.40;99.90;;;;;;5130264;27;20236;-62
2022/05/13 02:36:07;;;;;;;8.30;4.13;;;11.40;99.90;;;;;;5132736;27;20274;-62
2022/05/13 02:38:35;;;;;;;8.80;4.20;;;11.40;99.90;;;;;;5132523;27;20267;-62
2022/05/13 02:41:13;;;;;;;10.37;4.53;;;11.40;99.90;;;;;;5132678;27;20318;-62
2022/05/13 02:43:43;;;;;;;9.93;4.67;;;11.40;99.90;;;;;;5129956;27;20255;-62
2022/05/13 02:46:14;;;;;;;8.67;4.20;;;11.30;99.90;;;;;;5132465;27;20227;-62
2022/05/13 02:48:42;;;;;;;8.93;4.90;;;11.40;99.90;;;;;;5127625;27;20687;-62
2022/05/13 02:51:10;;;;;;;8.47;4.33;;;11.40;99.90;;;;;;5132646;27;20240;-62
2022/05/13 02:53:39;;;;;;;7.87;4.20;;;11.40;99.90;;;;;;5130153;27;20271;-62
2022/05/13 02:56:07;;;;;;;10.30;4.87;;;11.40;99.90;;;;;;5132032;27;20246;-62
2022/05/13 02:58:35;;;;;;;6.53;4.17;;;11.40;99.90;;;;;;5132131;27;20599;-62
2022/05/13 03:01:05;;;;;;;11.60;5.00;;;11.50;99.90;;;;;;5131929;27;20243;-63
2022/05/13 03:03:37;;;;;;;11.20;5.20;;;11.50;99.90;;;;;;5131632;27;20311;-62
2022/05/13 03:06:06;;;;;;;7.23;4.67;;;11.50;99.90;;;;;;5119099;27;20259;-62
2022/05/13 03:08:34;;;;;;;9.50;4.90;;;11.50;99.90;;;;;;5126247;27;20734;-62
2022/05/13 03:11:03;;;;;;;9.17;5.00;;;11.40;99.90;;;;;;5132185;27;20240;-62
2022/05/13 03:13:31;;;;;;;6.70;4.37;;;11.40;99.90;;;;;;5130809;27;20599;-62
2022/05/13 03:16:03;;;;;;;9.20;4.63;;;11.40;99.90;;;;;;5129921;27;20284;-62
2022/05/13 03:18:31;;;;;;;6.87;4.50;;;11.40;99.90;;;;;;5130783;27;20663;-62
2022/05/13 03:21:01;;;;;;;8.93;4.23;;;11.40;99.90;;;;;;5131598;27;20297;-62
2022/05/13 03:23:29;;;;;;;8.43;4.07;;;11.40;99.90;;;;;;5130384;27;20242;-63
2022/05/13 03:25:58;;;;;;;12.80;4.97;;;11.40;99.90;;;;;;5131872;27;20232;-62
2022/05/13 03:28:26;;;;;;;7.60;4.20;;;11.50;99.90;;;;;;5131228;27;20242;-62
2022/05/13 03:30:54;;;;;;;7.00;4.90;;;11.50;99.90;;;;;;5127757;27;20235;-62
2022/05/13 03:33:23;;;;;;;7.87;4.47;;;11.50;99.90;;;;;;5130768;27;20240;-63
2022/05/13 03:35:52;;;;;;;9.73;4.77;;;11.50;99.90;;;;;;5132006;27;20323;-62
2022/05/13 03:38:22;;;;;;;6.60;4.30;;;11.50;99.90;;;;;;5131723;27;20240;-62
2022/05/13 03:40:50;;;;;;;7.83;4.80;;;11.50;99.90;;;;;;5131412;27;20240;-63
2022/05/13 03:43:19;;;;;;;7.57;4.13;;;11.50;99.90;;;;;;5130560;27;20698;-63
2022/05/13 03:45:47;;;;;;;7.50;4.37;;;11.60;99.90;;;;;;5130837;27;20228;-62
2022/05/13 03:48:15;;;;;;;6.97;4.17;;;11.50;99.90;;;;;;5131620;27;21093;-62
2022/05/13 03:50:45;;;;;;;7.30;4.47;;;11.60;99.90;;;;;;5131155;27;20244;-63
2022/05/13 03:53:14;;;;;;;7.13;3.83;;;11.60;99.90;;;;;;5130275;27;20792;-62
2022/05/13 03:55:45;;;;;;;12.23;4.67;;;11.50;99.90;;;;;;5128566;27;20252;-63
2022/05/13 03:58:14;;;;;;;10.17;4.83;;;11.60;99.90;;;;;;5130799;27;20243;-62
2022/05/13 04:00:43;;;;;;;8.10;4.67;;;11.60;99.90;;;;;;5125460;27;20641;-62
2022/05/13 04:03:12;;;;;;;4.47;4.07;;;11.60;99.90;;;;;;5129567;27;20250;-62
2022/05/13 04:11:22;;;;;;;8.53;5.00;;;11.60;99.90;;;;;;5105786;27;20235;-62
2022/05/13 04:16:51;;;;;;;8.33;4.60;;;11.60;99.90;;;;;;5054641;28;20245;-62
2022/05/13 04:19:20;;;;;;;10.17;5.10;;;11.60;99.90;;;;;;5047383;28;20603;-62
2022/05/13 04:21:48;;;;;;;6.57;4.33;;;11.60;99.90;;;;;;5097263;27;20227;-62
2022/05/13 04:24:19;;;;;;;8.67;4.20;;;11.60;99.90;;;;;;5129582;27;20331;-63
2022/05/13 04:26:49;;;;;;;9.23;4.80;;;11.60;99.90;;;;;;5131159;27;20246;-62
2022/05/13 04:29:17;;;;;;;7.40;4.47;;;11.60;99.90;;;;;;5123926;27;20241;-63
2022/05/13 04:31:45;;;;;;;9.27;4.27;;;11.70;99.90;;;;;;5119523;28;20235;-62
2022/05/13 04:34:14;;;;;;;7.30;4.27;;;11.70;99.90;;;;;;5129309;27;20775;-62
2022/05/13 04:36:42;;;;;;;9.10;4.63;;;11.70;99.90;;;;;;5116506;27;20583;-62
2022/05/13 04:39:11;;;;;;;10.10;5.57;;;11.70;99.90;;;;;;5126678;27;20239;-62
2022/05/13 04:44:26;;;;;;;6.83;4.50;;;11.70;99.90;;;;;;5132702;27;20682;-62
2022/05/13 04:46:54;;;;;;;6.63;4.33;;;11.70;99.90;;;;;;5135085;27;20242;-63
2022/05/13 04:49:22;;;;;;;6.83;4.40;;;11.80;99.90;;;;;;5135575;27;20706;-62
2022/05/13 04:51:54;;;;;;;7.13;4.33;;;11.80;99.90;;;;;;5134878;27;20247;-62
2022/05/13 04:54:22;;;;;;;8.27;4.33;;;11.80;99.90;;;;;;5133469;27;20235;-62
2022/05/13 04:56:50;;;;;;;7.87;4.10;;;11.80;99.90;;;;;;5134992;27;20735;-62
2022/05/13 04:59:19;;;;;;;5.47;4.10;;;11.80;99.90;;;;;;5133809;27;20231;-62
2022/05/13 05:01:48;;;;;;;8.23;4.13;;;11.80;99.90;;;;;;5129492;27;20279;-62
2022/05/13 05:04:17;;;;;;;8.27;3.80;;;11.80;99.90;;;;;;5131810;27;20238;-62
2022/05/13 05:06:45;;;;;;;5.33;3.73;;;11.80;99.90;;;;;;5134579;27;20237;-63
2022/05/13 05:09:13;;;;;;;8.57;4.00;;;11.80;99.90;;;;;;5134779;27;20292;-62
2022/05/13 05:11:41;;;;;;;8.53;4.27;;;11.80;99.90;;;;;;5133937;27;20234;-62
2022/05/13 05:14:09;;;;;;;7.50;4.10;;;11.80;99.90;;;;;;5132356;27;20231;-62
2022/05/13 05:16:42;;;;;;;6.27;4.30;;;11.80;99.90;;;;;;5130370;27;20736;-62
2022/05/13 05:19:12;;;;;;;8.97;4.23;;;11.80;99.90;;;;;;5133860;27;20266;-63
2022/05/13 05:21:40;;;;;;;7.03;4.23;;;11.80;99.90;;;;;;5131483;27;20258;-63
2022/05/13 05:24:08;;;;;;;7.27;4.07;;;11.80;99.90;;;;;;5133058;27;20322;-62
2022/05/13 05:26:36;;;;;;;7.67;4.30;;;11.90;99.90;;;;;;5134430;27;20587;-62
2022/05/13 05:29:05;;;;;;;8.97;3.70;;;11.90;99.90;;;;;;5133116;27;20333;-62
2022/05/13 05:31:33;;;;;;;7.47;4.23;;;11.90;99.90;;;;;;5133976;27;20232;-62
2022/05/13 05:34:01;;;;;;;7.90;3.90;;;12.00;99.90;;;;;;5133131;27;20244;-62
2022/05/13 05:36:31;;;;;;;6.97;3.57;;;12.00;99.90;;;;;;5134093;27;20232;-62
2022/05/13 05:38:59;;;;;;;5.50;3.63;;;12.00;99.90;;;;;;5132721;27;20240;-62
2022/05/13 05:41:27;;;;;;;8.63;3.80;;;12.00;99.90;;;;;;5133555;27;20576;-62
2022/05/13 05:43:55;;;;;;;10.40;4.10;;;12.00;99.90;;;;;;5128973;27;20591;-64
2022/05/13 05:46:23;;;;;;;5.33;3.70;;;12.00;99.90;;;;;;5134448;27;20236;-62
2022/05/13 05:48:51;;;;;;;6.63;3.60;;;12.00;99.90;;;;;;5133899;27;20240;-62
2022/05/13 05:51:20;;;;;;;7.47;3.83;;;12.00;99.90;;;;;;5132676;27;20229;-62
2022/05/13 05:59:20;;;;;;;7.47;3.90;;;11.90;99.90;;;;;;5132566;27;20240;-62
2022/05/13 06:01:48;;;;;;;6.83;3.53;;;12.00;99.90;;;;;;5132448;27;20707;-62
2022/05/13 06:04:20;;;;;;;6.10;3.50;;;12.00;99.90;;;;;;5132446;27;20239;-62
2022/05/13 06:06:48;;;;;;;6.23;3.87;;;12.00;99.90;;;;;;5120601;27;20233;-62
2022/05/13 06:09:18;;;;;;;6.33;3.67;;;12.00;99.90;;;;;;5118748;27;20307;-62
2022/05/13 06:11:46;;;;;;;5.83;3.37;;;12.10;99.90;;;;;;5132225;27;20232;-62
2022/05/13 06:14:15;;;;;;;5.70;3.63;;;12.10;99.90;;;;;;5132127;27;20235;-62
2022/05/13 06:16:43;;;;;;;6.63;3.80;;;12.10;99.90;;;;;;5133359;27;20318;-62
2022/05/13 06:19:11;;;;;;;6.10;3.30;;;12.20;99.90;;;;;;5133016;27;20786;-62
2022/05/13 06:21:40;;;;;;;6.97;3.30;;;12.20;99.90;;;;;;5132171;27;20232;-62
2022/05/13 06:24:08;;;;;;;6.63;3.60;;;12.20;99.90;;;;;;5131760;27;20236;-62
2022/05/13 06:26:37;;;;;;;7.47;3.70;;;12.20;99.90;;;;;;5132559;27;20240;-62
2022/05/13 06:29:06;;;;;;;9.20;3.37;;;12.20;99.90;;;;;;5131368;27;20392;-63
2022/05/13 06:31:36;;;;;;;9.67;3.90;;;12.20;99.90;;;;;;5131745;27;20242;-62
2022/05/13 06:34:05;;;;;;;5.13;3.23;;;12.20;99.90;;;;;;5131398;27;20328;-62
2022/05/13 06:36:33;;;;;;;5.53;3.13;;;12.20;99.90;;;;;;5133114;27;20601;-62
2022/05/13 06:39:02;;;;;;;4.90;3.03;;;12.20;99.90;;;;;;5132825;27;20703;-62
2022/05/13 06:41:31;;;;;;;7.23;3.57;;;12.20;99.90;;;;;;5132445;27;20263;-62
2022/05/13 06:44:02;;;;;;;5.37;3.37;;;12.30;99.90;;;;;;5131250;27;20241;-62
2022/05/13 06:46:30;;;;;;;6.03;3.40;;;12.40;99.90;;;;;;5132929;27;20237;-62
2022/05/13 06:48:58;;;;;;;6.33;3.30;;;12.60;99.90;;;;;;5132616;27;20236;-63
2022/05/13 06:51:27;;;;;;;7.33;3.27;;;12.70;99.90;;;;;;5131712;27;20321;-63
2022/05/13 06:53:55;;;;;;;6.43;3.23;;;12.80;99.90;;;;;;5131539;27;20251;-62
2022/05/13 06:56:23;;;;;;;8.47;3.90;;;12.90;99.90;;;;;;5128333;27;20572;-62
2022/05/13 06:58:51;;;;;;;6.70;3.33;;;13.00;99.90;;;;;;5132382;27;20236;-62
2022/05/13 07:01:22;;;;;;;8.50;3.57;;;13.00;99.90;;;;;;5128532;27;20236;-62
2022/05/13 07:03:51;;;;;;;8.63;3.83;;;12.90;99.90;;;;;;5130297;27;20266;-63
2022/05/13 07:06:20;;;;;;;8.03;3.90;;;12.80;99.90;;;;;;5132625;27;20232;-62
2022/05/13 07:08:49;;;;;;;5.67;3.53;;;12.70;99.90;;;;;;5132357;27;20237;-62
2022/05/13 07:11:18;;;;;;;6.53;3.47;;;12.70;99.90;;;;;;5129389;27;20234;-62
2022/05/13 07:13:46;;;;;;;8.67;3.70;;;12.70;99.90;;;;;;5127596;27;20281;-63
2022/05/13 07:16:14;;;;;;;7.37;3.27;;;12.70;99.90;;;;;;5125234;27;20241;-63
2022/05/13 07:18:46;;;;;;;7.87;3.57;;;12.80;99.90;;;;;;5111326;28;20244;-61
2022/05/13 07:21:15;;;;;;;6.97;3.37;;;12.90;99.90;;;;;;5112211;27;20255;-62
2022/05/13 07:23:43;;;;;;;10.80;3.50;;;13.00;99.90;;;;;;5124870;27;20734;-62
2022/05/13 07:26:12;;;;;;;7.83;3.60;;;13.10;99.90;;;;;;5131609;27;20323;-62
2022/05/13 07:28:40;;;;;;;7.07;3.63;;;13.20;99.90;;;;;;5131939;27;20277;-62
2022/05/13 07:31:09;;;;;;;11.20;3.70;;;13.20;99.90;;;;;;5131718;27;20334;-62
2022/05/13 07:33:37;;;;;;;8.17;3.60;;;13.20;99.90;;;;;;5129913;27;20228;-63
2022/05/13 07:36:07;;;;;;;8.00;3.67;;;13.20;99.90;;;;;;5127797;27;20271;-62
2022/05/13 07:38:35;;;;;;;10.20;3.73;;;13.30;99.90;;;;;;5131264;27;20243;-62
2022/05/13 07:41:17;;;;;;;8.37;3.60;;;13.40;99.90;;;;;;5130743;27;20228;-62
2022/05/13 07:43:46;;;;;;;8.13;4.00;;;13.50;99.90;;;;;;5129524;27;20316;-63
2022/05/13 07:46:15;;;;;;;5.13;3.03;;;13.50;99.90;;;;;;5131266;27;20228;-62
2022/05/13 07:48:43;;;;;;;8.40;3.60;;;13.60;99.90;;;;;;5131361;27;20231;-62
2022/05/13 07:51:13;;;;;;;6.00;2.97;;;13.70;99.90;;;;;;5131287;27;20282;-62
2022/05/13 07:53:41;;;;;;;9.53;3.90;;;13.80;99.90;;;;;;5127563;27;20228;-62
2022/05/13 07:56:10;;;;;;;11.30;4.50;;;13.80;99.90;;;;;;5131072;27;20229;-62
2022/05/13 07:58:38;;;;;;;8.60;4.03;;;13.90;99.90;;;;;;5126994;27;20598;-63
2022/05/13 08:01:06;;;;;;;8.13;3.90;;;14.00;99.90;;;;;;5130620;27;20319;-62
2022/05/13 08:03:34;;;;;;;7.90;3.50;;;14.00;99.90;;;;;;5127250;27;20229;-62
2022/05/13 08:06:04;;;;;;;11.77;4.23;;;14.10;99.90;;;;;;5131065;27;20248;-62
2022/05/13 08:08:39;;;;;;;8.57;3.67;;;14.20;99.90;;;;;;5130685;27;20263;-62
2022/05/13 08:11:10;;;;;;;13.30;4.40;;;14.20;99.90;;;;;;5131441;27;20681;-62
2022/05/13 08:13:39;;;;;;;9.13;4.20;;;14.20;99.90;;;;;;5129441;27;20324;-62
2022/05/13 08:16:10;;;;;;;10.20;4.30;;;14.30;99.90;;;;;;5131001;27;20735;-62
2022/05/13 08:18:39;;;;;;;9.20;3.63;;;14.40;99.90;;;;;;5131528;27;20232;-62
2022/05/13 08:21:08;;;;;;;9.70;4.50;;;14.60;99.90;;;;;;5131006;27;20244;-62
2022/05/13 08:23:37;;;;;;;9.37;4.33;;;14.70;99.90;;;;;;5129334;27;20941;-62
2022/05/13 08:26:06;;;;;;;10.30;4.20;;;14.80;99.90;;;;;;5130702;28;20241;-62
2022/05/13 08:28:34;;;;;;;11.50;4.57;;;14.90;99.90;;;;;;5131001;27;20240;-63
2022/05/13 08:31:03;;;;;;;12.87;4.83;;;14.90;99.90;;;;;;5130815;27;20232;-62
2022/05/13 08:33:31;;;;;;;13.50;4.70;;;15.00;99.90;;;;;;5129521;27;20695;-63
2022/05/13 08:36:01;;;;;;;14.27;4.67;;;15.10;99.90;;;;;;5130559;27;20237;-63
2022/05/13 08:38:34;;;;;;;9.80;3.77;;;15.20;99.90;;;;;;5119212;27;20233;-63
2022/05/13 08:41:24;;;;;;;11.63;4.67;;;15.40;99.90;;;;;;5127184;27;20697;-62
2022/05/13 08:43:56;;;;;;;11.73;4.67;;;15.50;99.90;;;;;;5120336;27;20256;-63
2022/05/13 08:46:34;;;;;;;9.47;4.33;;;15.50;99.90;;;;;;5122346;27;20718;-62
2022/05/13 08:49:23;;;;;;;10.50;4.33;;;15.50;99.90;;;;;;5121796;27;20235;-63
2022/05/13 08:52:04;;;;;;;9.23;3.80;;;15.60;99.90;;;;;;5120995;27;20653;-62
2022/05/13 08:54:35;;;;;;;13.97;4.60;;;15.60;99.90;;;;;;5120791;27;20229;-63
2022/05/13 08:57:11;;;;;;;16.00;4.83;;;15.70;99.90;;;;;;5121971;27;20248;-63
2022/05/13 08:59:46;;;;;;;10.27;4.30;;;15.70;99.90;;;;;;5122100;28;20252;-63
2022/05/13 09:02:23;;;;;;;7.93;3.70;;;16.00;99.90;;;;;;5120682;27;20228;-62
2022/05/13 09:04:59;;;;;;;12.80;4.73;;;16.10;99.90;;;;;;5121700;28;21032;-63
2022/05/13 09:07:28;;;;;;;10.43;3.90;;;16.40;99.90;;;;;;5120422;27;20307;-62
2022/05/13 09:10:00;;;;;;;12.83;4.00;;;16.70;99.90;;;;;;5121297;27;20316;-62
2022/05/13 09:12:36;;;;;;;11.23;4.10;;;17.00;99.90;;;;;;5120872;27;20244;-63
2022/05/13 09:15:09;;;;;;;11.23;4.40;;;17.10;99.90;;;;;;5120870;27;20228;-63
2022/05/13 09:17:43;;;;;;;11.73;4.17;;;17.00;99.90;;;;;;5120307;27;21901;-62
2022/05/13 09:20:14;;;;;;;12.67;4.07;;;16.90;99.90;;;;;;5120374;27;20642;-63
2022/05/13 09:22:44;;;;;;;11.70;4.50;;;16.80;99.90;;;;;;5118485;27;20240;-64
2022/05/13 09:25:18;;;;;;;10.57;4.33;;;16.80;99.90;;;;;;5119239;27;20244;-63
2022/05/13 09:27:51;;;;;;;8.53;4.10;;;16.80;99.90;;;;;;5123087;27;20263;-63
2022/05/13 09:30:23;;;;;;;11.80;3.77;;;16.80;99.90;;;;;;5125731;27;20251;-62
2022/05/13 09:32:52;;;;;;;9.17;4.13;;;16.90;99.90;;;;;;5123927;27;20866;-62
2022/05/13 09:35:30;;;;;;;8.30;3.87;;;17.00;99.90;;;;;;5124267;27;20245;-63
2022/05/13 09:37:59;;;;;;;10.33;3.80;;;17.10;99.90;;;;;;5125310;27;20642;-62
2022/05/13 09:40:28;;;;;;;14.57;4.43;;;17.00;99.90;;;;;;5124367;27;20225;-63
2022/05/13 09:42:58;;;;;;;6.83;3.43;;;17.00;99.90;;;;;;5121885;27;20360;-63
2022/05/13 09:45:29;;;;;;;7.67;3.13;;;17.10;99.90;;;;;;5123472;27;20249;-63
2022/05/13 09:48:08;;;;;;;7.73;3.00;;;16.80;99.90;;;;;;5102533;28;20240;-63
2022/05/13 09:50:41;;;;;;;8.53;2.60;;;16.20;99.90;;;;;;5106894;28;20718;-63
2022/05/13 09:53:31;;;;;;;7.97;2.87;;;15.30;99.90;;;;;;5102058;28;20244;-63
2022/05/13 09:56:02;;;;;;;6.93;2.50;;;15.00;99.90;;;;;;5094954;27;20273;-64
2022/05/13 09:58:35;;;;;;;7.87;2.90;;;14.80;99.90;;;;;;5105554;27;20238;-65
2022/05/13 10:01:07;;;;;;;5.93;2.53;;;14.80;99.90;;;;;;5103969;27;20261;-63
2022/05/13 10:03:38;;;;;;;5.37;3.03;;;15.00;99.90;;;;;;5103478;27;20252;-63
2022/05/13 10:06:19;;;;;;;4.63;2.70;;;15.10;99.90;;;;;;5103134;27;20256;-63
2022/05/13 10:08:54;;;;;;;5.43;2.80;;;15.50;99.90;;;;;;5123362;27;20240;-63
2022/05/13 10:14:28;;;;;;;4.70;2.43;;;16.70;99.90;;;;;;5120686;27;20233;-63
2022/05/13 10:17:02;;;;;;;7.13;2.67;;;17.40;99.90;;;;;;5100481;27;20241;-65
2022/05/13 10:19:38;;;;;;;4.23;2.20;;;18.00;99.90;;;;;;5103170;27;20285;-64
2022/05/13 10:22:15;;;;;;;4.93;2.80;;;18.80;99.90;;;;;;5122987;27;20854;-63
2022/05/13 10:24:49;;;;;;;7.87;3.27;;;19.50;99.90;;;;;;5123876;27;20631;-63
2022/05/13 10:27:25;;;;;;;6.83;2.60;;;19.20;99.90;;;;;;5123157;27;20235;-64
2022/05/13 10:29:59;;;;;;;6.70;2.87;;;19.00;99.90;;;;;;5123547;27;20234;-64
2022/05/13 10:32:41;;;;;;;8.50;2.83;;;18.90;99.90;;;;;;5123154;27;20242;-63
2022/05/13 10:35:13;;;;;;;8.67;3.07;;;19.00;99.90;;;;;;5121859;27;20277;-63
2022/05/13 10:37:55;;;;;;;5.27;3.00;;;19.00;99.90;;;;;;5123942;27;20586;-63
2022/05/13 10:40:24;;;;;;;5.33;2.20;;;18.70;99.90;;;;;;5123211;27;20246;-64
2022/05/13 10:42:58;;;;;;;7.37;2.67;;;18.40;99.90;;;;;;5121696;27;20230;-63
2022/05/13 10:45:30;;;;;;;5.73;2.77;;;18.20;99.90;;;;;;5123307;27;20724;-63
2022/05/13 10:48:18;;;;;;;7.93;3.13;;;17.80;99.90;;;;;;5123913;27;20246;-63
2022/05/13 10:50:56;;;;;;;10.27;2.90;;;17.30;99.90;;;;;;5123772;27;20238;-63
2022/05/13 10:53:31;;;;;;;5.30;2.70;;;17.00;99.90;;;;;;5122352;27;20748;-62
2022/05/13 10:56:07;;;;;;;5.67;2.60;;;17.20;99.90;;;;;;5101869;28;20334;-64
2022/05/13 10:58:44;;;;;;;4.97;2.03;;;17.70;99.90;;;;;;5101846;28;20235;-63
2022/05/13 11:01:28;;;;;;;4.90;2.27;;;18.70;99.90;;;;;;5102554;27;20269;-64
2022/05/13 11:04:01;;;;;;;4.97;2.13;;;19.30;99.90;;;;;;5101586;27;20233;-63
2022/05/13 11:06:44;;;;;;;6.53;2.93;;;19.10;99.90;;;;;;5102350;27;20245;-63
2022/05/13 11:09:22;;;;;;;4.53;2.40;;;18.50;99.90;;;;;;5125025;27;20343;-62
2022/05/13 11:11:56;;;;;;;4.83;1.93;;;17.60;99.90;;;;;;5130044;27;20735;-62
2022/05/13 11:14:41;;;;;;;5.17;2.20;;;16.90;99.90;;;;;;5130522;27;20685;-62
2022/05/13 11:17:20;;;;;;;6.13;2.40;;;16.60;99.90;;;;;;5130898;27;21349;-63
2022/05/13 11:20:00;;;;;;;4.77;2.03;;;16.50;99.90;;;;;;5128677;27;20747;-62
2022/05/13 11:22:35;;;;;;;3.80;2.20;;;17.10;99.90;;;;;;5129257;27;20279;-62
2022/05/13 11:28:21;;;;;;;5.60;2.10;;;18.80;99.90;;;;;;5126122;27;20237;-63
2022/05/13 11:31:01;;;;;;;4.33;1.80;;;19.50;99.90;;;;;;5130947;27;20259;-63
2022/05/13 11:33:40;;;;;;;3.70;2.03;;;19.80;99.90;;;;;;5130200;27;20240;-63
2022/05/13 11:36:36;;;;;;;4.80;2.10;;;19.10;99.90;;;;;;5124393;27;20234;-62
2022/05/13 11:39:21;;;;;;;4.70;1.87;;;18.80;99.90;;;;;;5126213;27;20246;-62
2022/05/13 11:41:59;;;;;;;3.63;1.90;;;18.60;99.90;;;;;;5131807;27;20653;-63
2022/05/13 11:44:46;;;;;;;5.63;2.10;;;18.40;99.90;;;;;;5130459;27;20702;-62
2022/05/13 11:47:20;;;;;;;4.40;1.83;;;17.90;99.90;;;;;;5131536;27;20737;-63
2022/05/13 11:49:51;;;;;;;6.40;1.90;;;17.60;99.90;;;;;;5130218;27;20253;-63
2022/05/13 11:52:44;;;;;;;6.00;1.90;;;17.30;99.90;;;;;;5130176;27;20249;-63
2022/05/13 11:55:22;;;;;;;5.43;1.70;;;17.20;99.90;;;;;;5131075;27;20661;-62
2022/05/13 11:57:52;;;;;;;7.20;1.90;;;17.50;99.90;;;;;;5131496;27;20697;-62
2022/05/13 12:00:35;;;;;;;4.80;2.00;;;17.80;99.90;;;;;;5128462;27;20710;-62
2022/05/13 12:03:15;;;;;;;4.77;1.87;;;18.00;99.90;;;;;;5126753;27;20267;-63
2022/05/13 12:06:03;;;;;;;6.10;1.93;;;18.10;99.90;;;;;;5125318;27;20268;-62
2022/05/13 12:08:41;;;;;;;7.03;2.17;;;18.00;99.90;;;;;;5131775;27;20236;-62
2022/05/13 12:11:43;;;;;;;6.23;2.20;;;17.80;99.90;;;;;;5130424;27;20678;-62
2022/05/13 12:14:21;;;;;;;4.07;2.30;;;17.30;99.90;;;;;;5129459;27;20233;-62
2022/05/13 12:16:57;;;;;;;5.10;2.20;;;16.70;99.90;;;;;;5123684;27;20274;-64
2022/05/13 12:19:35;;;;;;;4.10;2.10;;;16.40;99.90;;;;;;5131237;27;20220;-63
2022/05/13 12:22:12;;;;;;;5.07;2.20;;;16.10;99.90;;;;;;5130800;27;20241;-65
2022/05/13 12:25:02;;;;;;;3.67;1.90;;;16.00;99.90;;;;;;5130616;27;20717;-63
2022/05/13 12:27:35;;;;;;;4.07;2.23;;;16.00;99.90;;;;;;5131106;27;20234;-63
2022/05/13 12:30:11;;;;;;;4.67;2.40;;;16.00;99.90;;;;;;5130334;27;20220;-65
2022/05/13 12:32:43;;;;;;;3.63;2.00;;;16.00;99.90;;;;;;5129082;27;20270;-63
2022/05/13 12:38:12;;;;;;;4.30;2.00;;;16.00;99.90;;;;;;5125842;27;20229;-63
2022/05/13 12:40:59;;;;;;;3.80;2.10;;;16.00;99.90;;;;;;5131293;27;20282;-63
2022/05/13 12:43:47;;;;;;;5.70;2.10;;;16.10;99.90;;;;;;5129350;27;20591;-63
2022/05/13 12:46:18;;;;;;;3.20;2.27;;;16.20;99.90;;;;;;5130807;27;20253;-63
2022/05/13 12:49:10;;;;;;;4.93;1.60;;;16.30;99.90;;;;;;5126109;27;20233;-63
2022/05/13 12:51:52;;;;;;;3.70;1.90;;;16.30;99.90;;;;;;5130943;27;20241;-63
2022/05/13 12:54:25;;;;;;;4.53;2.20;;;16.20;99.90;;;;;;5122736;27;20249;-63
2022/05/13 12:56:59;;;;;;;6.60;2.10;;;16.10;99.90;;;;;;5129213;27;20246;-63
2022/05/13 12:59:52;;;;;;;6.27;2.60;;;15.80;99.90;;;;;;5129948;27;20225;-63
2022/05/13 13:02:22;;;;;;;2.60;1.87;;;15.60;99.90;;;;;;5132152;27;20697;-63
2022/05/13 13:04:54;;;;;;;5.00;2.17;;;15.50;99.90;;;;;;5132766;27;20220;-63
2022/05/13 13:07:26;;;;;;;3.63;1.90;;;15.50;99.90;;;;;;5134406;27;20234;-63
2022/05/13 13:09:58;;;;;;;7.80;2.33;;;15.60;99.90;;;;;;5134746;27;20642;-63
2022/05/13 13:12:30;;;;;;;5.17;1.80;;;15.80;99.90;;;;;;5133473;27;20699;-63
2022/05/13 13:15:22;;;;;;;5.10;2.10;;;16.00;99.90;;;;;;5133168;27;20249;-63
2022/05/13 13:17:55;;;;;;;6.30;1.90;;;16.40;99.90;;;;;;5129645;27;20696;-63
2022/05/13 13:20:25;;;;;;;5.73;2.00;;;16.40;99.90;;;;;;5125044;27;20590;-64
2022/05/13 13:22:56;;;;;;;7.57;2.13;;;16.60;99.90;;;;;;5131411;27;20748;-65
2022/05/13 13:25:30;;;;;;;5.33;1.83;;;16.60;99.90;;;;;;5134288;27;20276;-64
2022/05/13 13:28:02;;;;;;;6.63;2.20;;;16.60;99.90;;;;;;5133073;27;20250;-64
2022/05/13 13:30:33;;;;;;;6.37;2.00;;;16.70;99.90;;;;;;5134200;27;20286;-65
2022/05/13 13:33:08;;;;;;;5.10;2.17;;;16.50;99.90;;;;;;5121130;27;20233;-64
2022/05/13 13:35:39;;;;;;;5.47;1.90;;;16.50;99.90;;;;;;5133155;27;20245;-65